Time;durP1;ratioP1;P1;durP2;ratioP2;P2;SDS_P1;SDS_P2;PMS_P1;PMS_P2;Temp;Humidity;BMP_temperature;BMP_pressure;BME280_temperature;BME280_humidity;BME280_pressure;Samples;Min_cycle;Max_cycle;Signal;HPM_P1;HPM_P2
2023/03/22 00:01:11;;;;;;;6.00;4.00;;;12.10;99.90;;;;;;4997484;28;20500;-82
2023/03/22 00:03:39;;;;;;;5.37;3.40;;;12.10;99.90;;;;;;4997707;28;20458;-80
2023/03/22 00:06:07;;;;;;;4.60;3.23;;;12.10;99.90;;;;;;4997249;28;20461;-83
2023/03/22 00:08:35;;;;;;;6.20;4.13;;;12.10;99.90;;;;;;4997611;28;20461;-81
2023/03/22 00:11:03;;;;;;;8.93;4.40;;;12.20;99.90;;;;;;4996589;28;20534;-81
2023/03/22 00:13:30;;;;;;;8.20;3.80;;;12.20;99.90;;;;;;4997901;28;20463;-82
2023/03/22 00:15:58;;;;;;;8.00;4.70;;;12.20;99.90;;;;;;4997380;28;20461;-82
2023/03/22 00:18:26;;;;;;;6.07;4.57;;;12.20;99.90;;;;;;4996797;28;20483;-81
2023/03/22 00:20:54;;;;;;;5.70;3.60;;;12.10;99.90;;;;;;4996837;28;20991;-81
2023/03/22 00:23:22;;;;;;;7.63;4.50;;;12.10;99.90;;;;;;4996911;28;20460;-80
2023/03/22 00:25:50;;;;;;;6.17;4.23;;;12.20;99.90;;;;;;4997246;28;20455;-82
2023/03/22 00:28:17;;;;;;;7.57;6.83;;;12.10;99.90;;;;;;4997571;28;20458;-82
2023/03/22 00:30:51;;;;;;;6.80;4.40;;;12.10;99.90;;;;;;4997209;28;20519;-82
2023/03/22 00:33:18;;;;;;;5.00;3.50;;;12.10;99.90;;;;;;5001237;28;20493;-79
2023/03/22 00:35:49;;;;;;;5.40;4.13;;;12.20;99.90;;;;;;5002301;28;20456;-79
2023/03/22 00:38:15;;;;;;;5.10;3.87;;;12.20;99.90;;;;;;5001964;28;20590;-80
2023/03/22 00:40:42;;;;;;;6.83;4.83;;;12.20;99.90;;;;;;4999074;28;20459;-82
2023/03/22 00:43:10;;;;;;;4.60;3.60;;;12.30;99.90;;;;;;4997881;28;20536;-81
2023/03/22 00:45:39;;;;;;;5.67;4.30;;;12.20;99.90;;;;;;4997766;28;20455;-82
2023/03/22 00:48:07;;;;;;;6.40;4.10;;;12.30;99.90;;;;;;4997403;28;20488;-81
2023/03/22 00:50:34;;;;;;;11.67;5.13;;;12.30;99.90;;;;;;4996272;28;20985;-82
2023/03/22 00:53:01;;;;;;;9.40;3.97;;;12.20;99.90;;;;;;4996691;28;20481;-82
2023/03/22 00:55:27;;;;;;;8.20;5.03;;;12.10;99.90;;;;;;4997370;28;20550;-81
2023/03/22 00:57:54;;;;;;;6.43;4.47;;;12.10;99.90;;;;;;4997458;28;20490;-83
2023/03/22 01:00:23;;;;;;;6.80;4.90;;;12.10;99.90;;;;;;4997820;28;20549;-82
2023/03/22 01:02:52;;;;;;;5.67;4.00;;;12.00;99.90;;;;;;4996976;28;20477;-83
2023/03/22 01:05:20;;;;;;;6.93;4.43;;;11.90;99.90;;;;;;4997600;28;20464;-82
2023/03/22 01:07:49;;;;;;;8.40;5.03;;;12.00;99.90;;;;;;4990597;28;20924;-81
2023/03/22 01:10:17;;;;;;;9.37;5.20;;;11.90;99.90;;;;;;4997286;28;20494;-81
2023/03/22 01:12:44;;;;;;;10.67;5.17;;;11.90;99.90;;;;;;4996538;28;20478;-82
2023/03/22 01:15:12;;;;;;;7.00;5.27;;;11.70;99.90;;;;;;4997448;28;20470;-82
2023/03/22 01:17:40;;;;;;;8.07;4.93;;;11.60;99.90;;;;;;4996313;28;20451;-81
2023/03/22 01:20:08;;;;;;;7.20;5.00;;;11.60;99.90;;;;;;4996183;28;20478;-81
2023/03/22 01:22:35;;;;;;;7.63;4.73;;;11.50;99.90;;;;;;4996550;28;20493;-81
2023/03/22 01:25:02;;;;;;;5.43;4.37;;;11.50;99.90;;;;;;4996728;28;20451;-81
2023/03/22 01:27:30;;;;;;;9.33;5.37;;;11.40;99.90;;;;;;4997165;28;20939;-81
2023/03/22 01:29:57;;;;;;;9.27;5.60;;;11.40;99.90;;;;;;4998058;28;20509;-81
2023/03/22 01:32:23;;;;;;;6.83;5.53;;;11.40;99.90;;;;;;4998127;28;20474;-79
2023/03/22 01:34:52;;;;;;;7.30;5.17;;;11.50;99.90;;;;;;4999406;28;20460;-79
2023/03/22 01:37:20;;;;;;;8.57;5.70;;;11.50;99.90;;;;;;4999234;28;20977;-80
2023/03/22 01:39:47;;;;;;;10.23;5.57;;;11.50;99.90;;;;;;5001538;28;20496;-80
2023/03/22 01:42:15;;;;;;;8.20;5.07;;;11.60;99.90;;;;;;4997675;28;20490;-81
2023/03/22 01:44:43;;;;;;;8.30;5.60;;;11.60;99.90;;;;;;4995901;28;20891;-81
2023/03/22 01:47:11;;;;;;;11.33;5.73;;;11.60;99.90;;;;;;4996110;28;20459;-80
2023/03/22 01:49:39;;;;;;;8.70;5.37;;;11.60;99.90;;;;;;4996387;28;20453;-82
2023/03/22 01:52:13;;;;;;;9.50;5.80;;;11.60;99.90;;;;;;4995505;28;20562;-80
2023/03/22 01:54:44;;;;;;;9.27;5.57;;;11.60;99.90;;;;;;4996398;28;20449;-81
2023/03/22 01:57:12;;;;;;;8.13;5.57;;;11.60;99.90;;;;;;4995599;28;20465;-80
2023/03/22 01:59:39;;;;;;;6.27;5.27;;;11.60;99.90;;;;;;4996323;28;20491;-81
2023/03/22 02:02:07;;;;;;;10.10;5.87;;;11.60;99.90;;;;;;4995542;28;21012;-82
2023/03/22 02:04:38;;;;;;;10.83;6.57;;;11.50;99.90;;;;;;4997171;28;20457;-79
2023/03/22 02:07:09;;;;;;;8.70;6.00;;;11.50;99.90;;;;;;4999180;28;20467;-82
2023/03/22 02:09:40;;;;;;;10.03;5.90;;;11.50;99.90;;;;;;4999613;28;20485;-82
2023/03/22 02:12:19;;;;;;;7.60;6.20;;;11.40;99.90;;;;;;4999218;28;21017;-82
2023/03/22 02:15:03;;;;;;;9.00;5.30;;;11.30;99.90;;;;;;4999572;28;20467;-80
2023/03/22 02:17:38;;;;;;;11.80;6.40;;;11.40;99.90;;;;;;5000538;28;20516;-83
2023/03/22 02:20:44;;;;;;;11.23;6.07;;;11.40;99.90;;;;;;4999071;28;20482;-81
2023/03/22 02:23:56;;;;;;;8.17;5.60;;;11.40;99.90;;;;;;4978311;28;20510;-81
2023/03/22 02:26:58;;;;;;;11.73;5.97;;;11.20;99.90;;;;;;4933657;28;20479;-81
2023/03/22 02:29:31;;;;;;;8.23;6.50;;;11.00;99.90;;;;;;4992945;28;20522;-81
2023/03/22 02:32:37;;;;;;;7.80;6.00;;;11.00;99.90;;;;;;4998042;28;20494;-80
2023/03/22 02:35:26;;;;;;;8.87;6.20;;;10.90;99.90;;;;;;4998659;28;20458;-82
2023/03/22 02:38:30;;;;;;;6.97;6.13;;;10.90;99.90;;;;;;4998761;28;20962;-80
2023/03/22 02:41:09;;;;;;;12.77;7.27;;;10.80;99.90;;;;;;4998426;28;20455;-80
2023/03/22 02:43:45;;;;;;;10.30;6.70;;;10.70;99.90;;;;;;4999236;28;20473;-81
2023/03/22 02:46:17;;;;;;;7.03;6.13;;;10.80;99.90;;;;;;4999949;28;20524;-81
2023/03/22 02:48:50;;;;;;;7.40;6.20;;;10.80;99.90;;;;;;4998678;28;20455;-81
2023/03/22 02:51:22;;;;;;;8.57;5.90;;;10.80;99.90;;;;;;4998859;28;20477;-83
2023/03/22 02:53:55;;;;;;;9.40;5.83;;;10.70;99.90;;;;;;4998518;28;20971;-82
2023/03/22 02:56:28;;;;;;;7.93;6.00;;;10.70;99.90;;;;;;4998906;28;20464;-81
2023/03/22 02:58:59;;;;;;;8.53;5.93;;;10.60;99.90;;;;;;4998801;28;21006;-82
2023/03/22 03:01:30;;;;;;;8.17;5.90;;;10.60;99.90;;;;;;4998543;28;20466;-83
2023/03/22 03:04:01;;;;;;;7.37;5.87;;;10.40;99.90;;;;;;4998180;28;20533;-81
2023/03/22 03:06:31;;;;;;;7.33;5.90;;;10.40;99.90;;;;;;4998819;28;20465;-82
2023/03/22 03:09:01;;;;;;;7.73;6.07;;;10.50;99.90;;;;;;4998856;28;20533;-81
2023/03/22 03:11:29;;;;;;;10.10;6.13;;;10.40;99.90;;;;;;4998965;28;20867;-82
2023/03/22 03:13:57;;;;;;;12.47;6.37;;;10.30;99.90;;;;;;4999034;28;20536;-81
2023/03/22 03:16:27;;;;;;;8.43;6.20;;;10.20;99.90;;;;;;4998397;28;20461;-81
2023/03/22 03:19:00;;;;;;;6.17;5.57;;;10.30;99.90;;;;;;4998822;28;20493;-83
2023/03/22 03:21:33;;;;;;;7.47;6.17;;;10.20;99.90;;;;;;4998764;28;20823;-84
2023/03/22 03:24:20;;;;;;;8.50;6.90;;;10.10;99.90;;;;;;4998898;28;20465;-82
2023/03/22 03:26:54;;;;;;;10.03;6.90;;;10.10;99.90;;;;;;4999355;28;20468;-80
2023/03/22 03:29:27;;;;;;;9.33;6.40;;;10.10;99.90;;;;;;5000842;28;20456;-80
2023/03/22 03:32:01;;;;;;;11.20;6.70;;;10.10;99.90;;;;;;5002069;28;20486;-81
2023/03/22 03:34:34;;;;;;;9.97;6.37;;;10.10;99.90;;;;;;5003736;28;20464;-81
2023/03/22 03:37:08;;;;;;;9.60;6.87;;;10.20;99.90;;;;;;5002896;28;20486;-80
2023/03/22 03:39:40;;;;;;;8.77;5.90;;;10.20;99.90;;;;;;4998394;28;20495;-81
2023/03/22 03:42:13;;;;;;;9.27;6.00;;;10.10;99.90;;;;;;4997411;28;20472;-82
2023/03/22 03:44:40;;;;;;;9.23;6.80;;;10.10;99.90;;;;;;4998116;28;20454;-81
2023/03/22 03:47:08;;;;;;;9.30;6.60;;;10.10;99.90;;;;;;4997330;28;20454;-82
2023/03/22 03:49:35;;;;;;;8.63;6.17;;;10.20;99.90;;;;;;4997363;28;20456;-81
2023/03/22 03:52:04;;;;;;;10.47;6.63;;;10.20;99.90;;;;;;4997637;28;20482;-82
2023/03/22 03:54:31;;;;;;;9.03;7.03;;;10.10;99.90;;;;;;4997155;28;20935;-80
2023/03/22 03:57:00;;;;;;;13.77;7.20;;;10.20;99.90;;;;;;4997161;28;20461;-80
2023/03/22 03:59:28;;;;;;;10.67;7.20;;;10.10;99.90;;;;;;4997740;28;20477;-81
2023/03/22 04:01:55;;;;;;;9.03;6.50;;;10.10;99.90;;;;;;4996952;28;20471;-83
2023/03/22 04:04:26;;;;;;;11.27;6.37;;;10.20;99.90;;;;;;4997498;28;20503;-79
2023/03/22 04:06:55;;;;;;;9.30;6.77;;;10.20;99.90;;;;;;4996906;28;20462;-82
2023/03/22 04:09:22;;;;;;;7.83;6.20;;;10.20;99.90;;;;;;4997240;28;20512;-80
2023/03/22 04:11:50;;;;;;;11.80;6.67;;;10.20;99.90;;;;;;4996629;28;20561;-83
2023/03/22 04:14:17;;;;;;;12.50;6.80;;;10.20;99.90;;;;;;4997083;28;20502;-81
2023/03/22 04:16:45;;;;;;;10.90;6.50;;;10.20;99.90;;;;;;4996207;28;20913;-80
2023/03/22 04:19:12;;;;;;;11.97;6.90;;;10.20;99.90;;;;;;4997158;28;20495;-81
2023/03/22 04:21:39;;;;;;;7.90;5.80;;;10.20;99.90;;;;;;4996137;28;20474;-82
2023/03/22 04:24:07;;;;;;;9.27;6.37;;;10.20;99.90;;;;;;4997027;28;20468;-82
2023/03/22 04:26:34;;;;;;;6.70;5.63;;;10.20;99.90;;;;;;4996964;28;20460;-80
2023/03/22 04:29:01;;;;;;;7.67;5.53;;;10.20;99.90;;;;;;4996213;28;20830;-81
2023/03/22 04:33:56;;;;;;;9.10;6.37;;;10.20;99.90;;;;;;5032079;23;21023;-81
2023/03/22 04:36:24;;;;;;;8.03;6.00;;;10.20;99.90;;;;;;5009791;28;20449;-81
2023/03/22 04:38:51;;;;;;;8.60;6.03;;;10.20;99.90;;;;;;4997151;28;20444;-81
2023/03/22 04:41:18;;;;;;;7.60;5.80;;;10.10;99.90;;;;;;5016556;28;20518;-80
2023/03/22 04:43:45;;;;;;;8.67;5.63;;;10.10;99.90;;;;;;5012792;28;20487;-80
2023/03/22 04:46:13;;;;;;;8.27;6.00;;;10.20;99.90;;;;;;5001914;28;20495;-79
2023/03/22 04:48:41;;;;;;;7.83;5.93;;;10.10;99.90;;;;;;5007711;28;20455;-79
2023/03/22 04:51:11;;;;;;;8.80;5.73;;;10.10;99.90;;;;;;5007549;28;20468;-80
2023/03/22 04:53:38;;;;;;;9.17;5.70;;;10.20;99.90;;;;;;5007836;28;20473;-81
2023/03/22 04:56:07;;;;;;;8.73;5.43;;;10.10;99.90;;;;;;4998265;28;20842;-81
2023/03/22 04:58:35;;;;;;;7.60;5.40;;;10.10;99.90;;;;;;4996012;28;20522;-80
2023/03/22 05:01:03;;;;;;;7.63;5.27;;;10.10;99.90;;;;;;4997446;28;20479;-81
2023/03/22 05:03:29;;;;;;;8.00;5.23;;;10.10;99.90;;;;;;5014884;28;20477;-81
2023/03/22 05:05:58;;;;;;;7.73;5.57;;;10.10;99.90;;;;;;5001604;28;20471;-81
2023/03/22 05:08:28;;;;;;;8.23;5.93;;;10.10;99.90;;;;;;4995758;28;20490;-82
2023/03/22 05:10:56;;;;;;;8.27;5.10;;;10.10;99.90;;;;;;4993827;28;20453;-80
2023/03/22 05:13:25;;;;;;;6.30;5.40;;;10.20;99.90;;;;;;4993835;28;20552;-80
2023/03/22 05:15:51;;;;;;;8.83;5.60;;;10.20;99.90;;;;;;4993312;28;20460;-80
2023/03/22 05:18:20;;;;;;;11.13;5.47;;;10.20;99.90;;;;;;4993512;28;20538;-80
2023/03/22 05:20:48;;;;;;;8.53;6.50;;;10.30;99.90;;;;;;4992942;28;20489;-79
2023/03/22 05:23:18;;;;;;;7.43;5.87;;;10.40;99.90;;;;;;4993027;28;21019;-80
2023/03/22 05:25:47;;;;;;;14.17;6.17;;;10.50;99.90;;;;;;4993249;28;20458;-80
2023/03/22 05:28:14;;;;;;;8.17;5.20;;;10.40;99.90;;;;;;4993666;28;20454;-79
2023/03/22 05:30:41;;;;;;;12.27;6.37;;;10.40;99.90;;;;;;4993317;28;20929;-80
2023/03/22 05:33:09;;;;;;;7.97;6.10;;;10.40;99.90;;;;;;4992583;28;20650;-79
2023/03/22 05:35:38;;;;;;;7.10;4.93;;;10.40;99.90;;;;;;4993890;28;20451;-81
2023/03/22 05:38:05;;;;;;;9.37;5.30;;;10.50;99.90;;;;;;4994879;28;20454;-82
2023/03/22 05:40:32;;;;;;;7.63;5.03;;;10.70;99.90;;;;;;4993549;28;20493;-84
2023/03/22 05:43:01;;;;;;;8.43;6.17;;;10.70;99.90;;;;;;5004313;28;20561;-81
2023/03/22 05:45:27;;;;;;;10.50;4.67;;;10.80;99.90;;;;;;5016374;28;20827;-81
2023/03/22 05:47:54;;;;;;;6.97;5.47;;;10.90;99.90;;;;;;5010734;28;20510;-79
2023/03/22 05:50:23;;;;;;;9.57;5.00;;;10.90;99.90;;;;;;4994999;28;20482;-79
2023/03/22 05:52:51;;;;;;;9.23;4.40;;;11.00;99.90;;;;;;4999871;28;20990;-80
2023/03/22 05:55:18;;;;;;;8.00;4.83;;;10.90;99.90;;;;;;5014836;28;20519;-80
2023/03/22 05:57:46;;;;;;;6.70;4.93;;;11.00;99.90;;;;;;5004656;28;20996;-79
2023/03/22 06:00:17;;;;;;;10.27;5.60;;;11.10;99.90;;;;;;5014069;28;20486;-81
2023/03/22 06:02:46;;;;;;;8.53;4.77;;;11.10;99.90;;;;;;5006854;28;20474;-80
2023/03/22 06:05:14;;;;;;;7.83;4.70;;;11.20;99.90;;;;;;5017736;28;20449;-80
2023/03/22 06:07:41;;;;;;;8.57;3.93;;;11.20;99.90;;;;;;5003831;28;20457;-81
2023/03/22 06:10:11;;;;;;;5.37;4.60;;;11.30;99.90;;;;;;4986189;28;20452;-81
2023/03/22 06:12:38;;;;;;;7.73;3.63;;;11.30;99.90;;;;;;5001564;28;20467;-82
2023/03/22 06:15:06;;;;;;;7.60;3.90;;;11.40;99.90;;;;;;5013967;28;20457;-81
2023/03/22 06:17:35;;;;;;;9.27;4.63;;;11.40;99.90;;;;;;5018647;28;20461;-80
2023/03/22 06:20:07;;;;;;;7.93;4.50;;;11.40;99.90;;;;;;5005701;28;20492;-80
2023/03/22 06:22:34;;;;;;;6.40;4.10;;;11.50;99.90;;;;;;4998798;28;20510;-79
2023/03/22 06:25:01;;;;;;;6.30;4.50;;;11.70;99.90;;;;;;5002639;28;20471;-81
2023/03/22 06:27:28;;;;;;;6.20;3.83;;;11.70;99.90;;;;;;5001423;28;20492;-81
2023/03/22 06:29:55;;;;;;;7.27;3.93;;;11.80;99.90;;;;;;5001818;28;20968;-82
2023/03/22 06:32:22;;;;;;;8.30;4.87;;;11.80;99.90;;;;;;5002060;28;21077;-80
2023/03/22 06:34:50;;;;;;;6.43;3.70;;;11.90;99.90;;;;;;5001577;28;20457;-81
2023/03/22 06:37:17;;;;;;;5.53;3.63;;;11.90;99.90;;;;;;5001787;28;20456;-81
2023/03/22 06:39:44;;;;;;;9.13;4.17;;;12.00;99.90;;;;;;5001888;28;20561;-81
2023/03/22 06:42:10;;;;;;;7.47;4.00;;;12.10;99.90;;;;;;5002047;28;20565;-81
2023/03/22 06:44:38;;;;;;;6.47;3.77;;;12.00;99.90;;;;;;5001238;28;20453;-85
2023/03/22 06:47:05;;;;;;;5.43;3.40;;;12.10;99.90;;;;;;4997800;28;20461;-81
2023/03/22 06:49:32;;;;;;;7.00;3.83;;;12.20;99.90;;;;;;4997786;28;20764;-81
2023/03/22 06:52:00;;;;;;;5.10;3.40;;;12.20;99.90;;;;;;4996114;28;20475;-81
2023/03/22 06:54:27;;;;;;;6.80;3.40;;;12.20;99.90;;;;;;4996771;28;20491;-80
2023/03/22 06:56:54;;;;;;;6.63;3.60;;;12.20;99.90;;;;;;4996761;28;20852;-81
2023/03/22 06:59:20;;;;;;;8.33;3.30;;;12.20;99.90;;;;;;4996974;28;20522;-81
2023/03/22 07:01:47;;;;;;;5.63;2.80;;;12.30;99.90;;;;;;4995702;28;20486;-79
2023/03/22 07:04:14;;;;;;;9.63;3.53;;;12.30;99.90;;;;;;4996212;28;20463;-80
2023/03/22 07:06:41;;;;;;;6.93;3.20;;;12.40;99.90;;;;;;4996836;28;20462;-81
2023/03/22 07:09:10;;;;;;;8.10;2.83;;;12.30;99.90;;;;;;4996290;28;20542;-81
2023/03/22 07:11:37;;;;;;;8.17;3.43;;;12.40;99.90;;;;;;4996896;28;20967;-79
2023/03/22 07:14:03;;;;;;;5.80;3.20;;;12.40;99.90;;;;;;4998094;28;20462;-81
2023/03/22 07:16:30;;;;;;;9.50;4.10;;;12.40;99.90;;;;;;4998033;28;20825;-81
2023/03/22 07:18:57;;;;;;;9.60;2.83;;;12.40;99.90;;;;;;4999689;28;20459;-79
2023/03/22 07:21:24;;;;;;;4.47;2.90;;;12.40;99.90;;;;;;4998992;28;20488;-81
2023/03/22 07:23:51;;;;;;;5.43;2.43;;;12.30;99.90;;;;;;5002157;28;20551;-81
2023/03/22 07:26:19;;;;;;;4.77;2.00;;;12.30;99.90;;;;;;5001483;28;20452;-81
2023/03/22 07:28:46;;;;;;;5.63;2.70;;;12.30;99.90;;;;;;4995730;28;20464;-80
2023/03/22 07:31:13;;;;;;;7.20;2.50;;;12.40;99.90;;;;;;4984117;28;20513;-81
2023/03/22 07:33:41;;;;;;;6.70;2.60;;;12.40;99.90;;;;;;4996390;28;20563;-80
2023/03/22 07:36:09;;;;;;;5.17;2.30;;;12.50;99.90;;;;;;5003221;28;20461;-81
2023/03/22 07:38:36;;;;;;;6.73;2.40;;;12.60;99.90;;;;;;5002990;28;20461;-80
2023/03/22 07:41:04;;;;;;;9.47;2.83;;;12.80;99.90;;;;;;5002921;28;20628;-80
2023/03/22 07:43:32;;;;;;;11.40;2.60;;;12.90;99.90;;;;;;5006494;28;20540;-81
2023/03/22 07:45:59;;;;;;;7.07;2.43;;;13.20;99.90;;;;;;5005962;28;20527;-79
2023/03/22 07:48:27;;;;;;;3.70;2.20;;;13.30;99.90;;;;;;4987778;28;20453;-80
2023/03/22 07:50:56;;;;;;;4.53;2.40;;;13.40;99.90;;;;;;5000844;28;20516;-79
2023/03/22 07:53:22;;;;;;;4.80;2.00;;;13.60;99.90;;;;;;4984235;28;20545;-80
2023/03/22 07:55:49;;;;;;;7.60;2.60;;;13.60;99.90;;;;;;4998138;28;20459;-80
2023/03/22 07:58:16;;;;;;;6.67;2.30;;;13.60;99.90;;;;;;4994855;28;20455;-80
2023/03/22 08:00:44;;;;;;;9.60;2.33;;;13.70;99.90;;;;;;4998721;28;20487;-81
2023/03/22 08:03:12;;;;;;;5.77;2.10;;;13.90;99.90;;;;;;4971716;28;20475;-81
2023/03/22 08:05:41;;;;;;;3.90;1.97;;;14.10;99.90;;;;;;5004448;28;20474;-81
2023/03/22 08:08:07;;;;;;;4.77;1.73;;;14.00;99.90;;;;;;5008268;28;20457;-82
2023/03/22 08:10:34;;;;;;;5.63;2.40;;;13.90;99.90;;;;;;5006201;28;20454;-80
2023/03/22 08:13:01;;;;;;;7.53;2.53;;;13.80;99.90;;;;;;5006830;28;20470;-82
2023/03/22 08:15:28;;;;;;;7.77;2.87;;;13.70;99.90;;;;;;4995571;28;20470;-81
2023/03/22 08:17:57;;;;;;;3.80;2.20;;;13.70;99.90;;;;;;5006382;28;20460;-82
2023/03/22 08:20:26;;;;;;;4.10;2.40;;;13.70;99.90;;;;;;5004468;28;20487;-82
2023/03/22 08:22:53;;;;;;;5.50;2.60;;;13.60;99.90;;;;;;5009116;28;20465;-82
2023/03/22 08:25:20;;;;;;;5.57;1.93;;;13.60;99.90;;;;;;4997513;28;20456;-82
2023/03/22 08:27:47;;;;;;;5.90;1.97;;;13.60;99.90;;;;;;4998349;28;20450;-81
2023/03/22 08:30:15;;;;;;;7.23;2.60;;;13.70;99.90;;;;;;4997138;28;20455;-80
2023/03/22 08:32:42;;;;;;;6.23;1.77;;;13.60;99.90;;;;;;4995363;28;20489;-82
2023/03/22 08:35:11;;;;;;;8.00;2.20;;;13.80;99.90;;;;;;5000949;28;20454;-82
2023/03/22 08:37:38;;;;;;;9.03;1.87;;;13.90;99.90;;;;;;4997553;28;20448;-80
2023/03/22 08:40:08;;;;;;;8.10;2.60;;;13.90;99.90;;;;;;5009543;28;20448;-81
2023/03/22 08:42:35;;;;;;;5.30;2.10;;;14.00;99.90;;;;;;5017666;28;20480;-81
2023/03/22 08:45:02;;;;;;;5.40;2.20;;;14.40;99.90;;;;;;5018545;28;20462;-81
2023/03/22 08:47:30;;;;;;;3.50;2.13;;;14.60;99.90;;;;;;4990741;28;20456;-82
2023/03/22 08:49:57;;;;;;;5.40;2.60;;;14.90;99.90;;;;;;5001592;28;20583;-82
2023/03/22 08:52:26;;;;;;;5.87;1.97;;;15.00;99.90;;;;;;4986560;28;20492;-85
2023/03/22 08:54:53;;;;;;;3.50;2.00;;;14.70;99.90;;;;;;4995958;28;20447;-81
2023/03/22 08:57:22;;;;;;;4.27;1.80;;;14.40;99.90;;;;;;4995895;28;20531;-81
2023/03/22 08:59:51;;;;;;;3.60;1.60;;;14.40;99.90;;;;;;4996149;28;20465;-80
2023/03/22 09:02:17;;;;;;;4.53;1.50;;;14.50;99.90;;;;;;4994737;28;20500;-80
2023/03/22 09:04:44;;;;;;;6.53;1.53;;;14.40;99.90;;;;;;4995919;28;20480;-80
2023/03/22 09:07:11;;;;;;;3.33;1.30;;;14.30;99.90;;;;;;4992032;28;20499;-81
2023/03/22 09:09:39;;;;;;;3.87;1.20;;;14.50;99.90;;;;;;4993553;28;21856;-81
2023/03/22 09:12:07;;;;;;;6.67;2.00;;;14.60;99.90;;;;;;4992098;28;20553;-79
2023/03/22 09:14:34;;;;;;;2.93;1.43;;;14.70;99.90;;;;;;4995280;28;20468;-79
2023/03/22 09:17:01;;;;;;;3.40;1.20;;;14.90;99.90;;;;;;4996015;28;20513;-81
2023/03/22 09:19:28;;;;;;;4.50;1.67;;;15.20;99.90;;;;;;4997005;28;20455;-84
2023/03/22 09:21:55;;;;;;;3.33;1.30;;;15.60;99.90;;;;;;4995543;28;20493;-79
2023/03/22 09:24:22;;;;;;;4.83;2.07;;;16.30;99.90;;;;;;4996535;28;20459;-81
2023/03/22 09:26:51;;;;;;;4.20;1.63;;;16.70;99.90;;;;;;4994890;28;20909;-82
2023/03/22 09:29:18;;;;;;;5.87;1.60;;;16.50;99.90;;;;;;4996940;28;20509;-82
2023/03/22 09:31:47;;;;;;;3.73;1.50;;;16.70;99.90;;;;;;4999815;28;20487;-82
2023/03/22 09:34:15;;;;;;;5.00;1.43;;;16.20;99.90;;;;;;4980528;28;20463;-81
2023/03/22 09:36:42;;;;;;;7.83;2.07;;;16.10;99.90;;;;;;4993079;28;20458;-82
2023/03/22 09:39:09;;;;;;;6.47;1.47;;;16.50;99.90;;;;;;4999830;28;20453;-80
2023/03/22 09:41:39;;;;;;;3.80;1.20;;;16.70;99.90;;;;;;4985673;28;20482;-80
2023/03/22 09:44:14;;;;;;;5.07;1.10;;;16.70;99.90;;;;;;4992869;28;20829;-81
2023/03/22 09:46:44;;;;;;;4.37;1.20;;;17.60;99.90;;;;;;4992147;28;20446;-81
2023/03/22 09:49:17;;;;;;;2.87;1.60;;;18.40;99.90;;;;;;5009997;28;20465;-80
2023/03/22 09:51:47;;;;;;;4.33;1.20;;;18.80;99.90;;;;;;4995875;28;20471;-80
2023/03/22 09:54:18;;;;;;;7.10;1.77;;;19.00;99.90;;;;;;5005213;28;20462;-82
2023/03/22 09:56:49;;;;;;;3.17;1.40;;;18.50;99.90;;;;;;5003984;28;20486;-80
2023/03/22 09:59:24;;;;;;;3.80;1.20;;;18.00;99.90;;;;;;4995542;28;20455;-80
2023/03/22 10:01:56;;;;;;;2.00;1.13;;;17.40;99.90;;;;;;4992253;28;20477;-82
2023/03/22 10:04:50;;;;;;;3.90;1.40;;;16.60;99.90;;;;;;4993477;28;20462;-82
2023/03/22 10:07:26;;;;;;;4.47;2.07;;;16.30;99.90;;;;;;4993267;28;20979;-81
2023/03/22 10:10:03;;;;;;;5.80;1.40;;;17.20;99.90;;;;;;4993702;28;20442;-82
2023/03/22 10:12:33;;;;;;;3.70;1.30;;;18.20;99.90;;;;;;4992937;28;20531;-81
2023/03/22 10:15:05;;;;;;;2.60;1.30;;;17.50;99.90;;;;;;4993620;28;21031;-81
2023/03/22 10:17:35;;;;;;;3.10;1.17;;;17.30;99.90;;;;;;4993587;28;20451;-81
2023/03/22 10:20:08;;;;;;;4.43;1.30;;;17.30;99.90;;;;;;4992158;28;20447;-82
2023/03/22 10:22:38;;;;;;;3.10;1.17;;;16.60;99.90;;;;;;4993515;28;20486;-80
2023/03/22 10:25:08;;;;;;;3.20;1.23;;;16.40;99.90;;;;;;4994231;28;20462;-80
2023/03/22 10:27:36;;;;;;;5.03;1.67;;;16.50;99.90;;;;;;4996147;28;20451;-80
2023/03/22 10:30:09;;;;;;;5.63;1.50;;;16.80;99.90;;;;;;4997750;28;20490;-81
2023/03/22 10:32:42;;;;;;;10.27;1.43;;;16.20;99.90;;;;;;4997735;28;20537;-80
2023/03/22 10:35:14;;;;;;;6.70;1.30;;;16.10;99.90;;;;;;4997395;28;20960;-80
2023/03/22 10:37:43;;;;;;;4.37;1.60;;;16.00;99.90;;;;;;4997581;28;20462;-80
2023/03/22 10:40:17;;;;;;;4.47;1.70;;;16.10;99.90;;;;;;5003189;28;20462;-79
2023/03/22 10:42:51;;;;;;;3.40;1.00;;;16.50;99.90;;;;;;5007017;28;20490;-81
2023/03/22 10:45:20;;;;;;;2.80;1.20;;;16.20;99.90;;;;;;5003970;28;20467;-81
2023/03/22 10:47:53;;;;;;;3.30;1.50;;;16.40;99.90;;;;;;5001917;28;20450;-81
2023/03/22 10:50:27;;;;;;;3.57;1.10;;;16.50;99.90;;;;;;5001696;28;20536;-80
2023/03/22 10:52:59;;;;;;;5.00;1.40;;;16.70;99.90;;;;;;5003322;28;20472;-79
2023/03/22 10:55:26;;;;;;;5.77;1.50;;;17.30;99.90;;;;;;5000237;28;20563;-81
2023/03/22 10:58:00;;;;;;;5.63;1.20;;;17.80;99.90;;;;;;4990435;28;20463;-80
2023/03/22 11:00:29;;;;;;;6.33;1.70;;;17.20;99.90;;;;;;5003253;28;20542;-80
2023/03/22 11:03:00;;;;;;;4.00;1.73;;;17.10;99.90;;;;;;4999540;28;20491;-79
2023/03/22 11:05:29;;;;;;;2.97;1.20;;;17.10;99.90;;;;;;4992131;28;20458;-80
2023/03/22 11:07:58;;;;;;;8.40;1.90;;;17.50;99.90;;;;;;5002312;28;20475;-81
2023/03/22 11:10:28;;;;;;;5.13;1.40;;;18.20;99.90;;;;;;4999495;28;20454;-80
2023/03/22 11:13:10;;;;;;;5.37;1.50;;;18.50;99.90;;;;;;4992353;28;20503;-82
2023/03/22 11:15:41;;;;;;;6.10;1.70;;;18.60;99.90;;;;;;4999964;28;20528;-80
2023/03/22 11:18:14;;;;;;;3.60;1.10;;;18.20;99.90;;;;;;4987435;28;20466;-82
2023/03/22 11:20:42;;;;;;;3.87;1.50;;;18.10;99.90;;;;;;4984022;28;20544;-82
2023/03/22 11:23:16;;;;;;;3.70;1.50;;;17.90;99.90;;;;;;4985125;28;20590;-83
2023/03/22 11:25:46;;;;;;;4.67;1.23;;;17.70;99.90;;;;;;4984404;28;20459;-83
2023/03/22 11:28:19;;;;;;;6.63;1.53;;;17.60;99.90;;;;;;4981875;28;20462;-82
2023/03/22 11:31:03;;;;;;;6.80;1.53;;;17.40;99.90;;;;;;4981850;28;20543;-82
2023/03/22 11:33:30;;;;;;;5.00;1.20;;;17.10;99.90;;;;;;4982610;28;20514;-82
2023/03/22 11:35:59;;;;;;;6.93;2.63;;;16.70;99.90;;;;;;4982255;28;20463;-81
2023/03/22 11:38:29;;;;;;;5.90;1.90;;;16.80;99.90;;;;;;4996773;28;20465;-80
2023/03/22 11:41:00;;;;;;;3.73;1.30;;;16.60;99.90;;;;;;5005436;28;20453;-80
2023/03/22 11:43:32;;;;;;;3.60;1.40;;;16.20;99.90;;;;;;5003614;28;20478;-80
2023/03/22 11:46:01;;;;;;;5.50;1.30;;;16.20;99.90;;;;;;5013682;28;20443;-80
2023/03/22 11:48:31;;;;;;;5.73;1.13;;;15.80;99.90;;;;;;5011284;28;20536;-81
2023/03/22 11:51:05;;;;;;;4.47;1.57;;;15.50;99.90;;;;;;5005816;28;20516;-80
2023/03/22 11:53:34;;;;;;;3.50;1.60;;;15.50;99.90;;;;;;4996266;28;20941;-80
2023/03/22 11:56:03;;;;;;;3.90;1.43;;;15.20;99.90;;;;;;5012025;28;20967;-82
2023/03/22 11:58:44;;;;;;;5.10;1.27;;;15.20;99.90;;;;;;5002480;28;20450;-82
2023/03/22 12:01:18;;;;;;;3.23;1.20;;;15.00;99.90;;;;;;5002775;28;20487;-85
2023/03/22 12:03:51;;;;;;;6.27;2.00;;;14.80;99.90;;;;;;5005812;28;20476;-83
2023/03/22 12:06:22;;;;;;;7.27;1.20;;;14.70;99.90;;;;;;5001602;28;20526;-83
2023/03/22 12:08:53;;;;;;;6.10;1.50;;;14.90;99.90;;;;;;4997238;28;20476;-82
2023/03/22 12:11:27;;;;;;;6.03;1.67;;;15.00;99.90;;;;;;5008502;28;20559;-82
2023/03/22 12:13:58;;;;;;;4.17;1.50;;;15.10;99.90;;;;;;5006587;28;20475;-83
2023/03/22 12:16:31;;;;;;;10.43;1.80;;;15.10;99.90;;;;;;5007630;28;20455;-82
2023/03/22 12:19:06;;;;;;;4.67;1.90;;;15.10;99.90;;;;;;5008167;28;20547;-81
2023/03/22 12:21:34;;;;;;;3.70;1.67;;;15.10;99.90;;;;;;4999356;28;20483;-81
2023/03/22 12:24:05;;;;;;;3.70;1.40;;;14.70;99.90;;;;;;5002561;28;20469;-82
2023/03/22 12:26:34;;;;;;;6.33;1.40;;;14.40;99.90;;;;;;5001424;28;20457;-82
2023/03/22 12:29:04;;;;;;;5.43;1.50;;;14.20;99.90;;;;;;5000283;28;20475;-83
2023/03/22 12:31:37;;;;;;;4.10;1.53;;;14.20;99.90;;;;;;4999286;28;20544;-82
2023/03/22 12:34:08;;;;;;;4.67;1.30;;;14.20;99.90;;;;;;4979251;28;20444;-82
2023/03/22 12:36:41;;;;;;;6.30;1.27;;;14.50;99.90;;;;;;4991007;28;20463;-82
2023/03/22 12:39:12;;;;;;;5.23;1.53;;;14.70;99.90;;;;;;4997210;28;20487;-80
2023/03/22 12:41:43;;;;;;;3.50;1.20;;;15.10;99.90;;;;;;4986149;28;20477;-83
2023/03/22 12:44:16;;;;;;;4.47;1.47;;;15.40;99.90;;;;;;4982890;28;20471;-84
2023/03/22 12:46:49;;;;;;;2.70;1.00;;;15.60;99.90;;;;;;4998368;28;20452;-82
2023/03/22 12:49:21;;;;;;;3.10;1.30;;;15.70;99.90;;;;;;4996530;28;20457;-81
2023/03/22 12:51:51;;;;;;;2.90;1.20;;;15.50;99.90;;;;;;4997481;28;20451;-80
2023/03/22 12:54:23;;;;;;;2.90;1.00;;;15.60;99.90;;;;;;4997437;28;20457;-80
2023/03/22 12:56:51;;;;;;;3.30;1.50;;;15.40;99.90;;;;;;4997055;28;20457;-81
2023/03/22 12:59:22;;;;;;;11.00;1.90;;;15.20;99.90;;;;;;4997739;28;20467;-82
2023/03/22 13:01:54;;;;;;;3.90;1.13;;;15.00;99.90;;;;;;4998264;28;21021;-81